sensor_id;sensor_type;location;lat;lon;timestamp;temperature;humidity
152;DHT22;68;48.792;9.164;2022-10-17T00:00:02;15.10;72.80
152;DHT22;68;48.792;9.164;2022-10-17T00:02:31;15.10;72.70
152;DHT22;68;48.792;9.164;2022-10-17T00:04:58;15.20;73.20
152;DHT22;68;48.792;9.164;2022-10-17T00:07:24;15.10;73.70
152;DHT22;68;48.792;9.164;2022-10-17T00:09:51;15.10;72.90
152;DHT22;68;48.792;9.164;2022-10-17T00:12:18;15.00;73.40
152;DHT22;68;48.792;9.164;2022-10-17T00:14:50;15.00;71.90
152;DHT22;68;48.792;9.164;2022-10-17T00:17:17;14.90;71.20
152;DHT22;68;48.792;9.164;2022-10-17T00:19:45;15.10;70.60
152;DHT22;68;48.792;9.164;2022-10-17T00:22:13;15.10;72.10
152;DHT22;68;48.792;9.164;2022-10-17T00:24:40;15.20;72.90
152;DHT22;68;48.792;9.164;2022-10-17T00:27:07;15.00;74.20
152;DHT22;68;48.792;9.164;2022-10-17T00:29:33;15.10;72.40
152;DHT22;68;48.792;9.164;2022-10-17T00:32:00;15.20;72.80
152;DHT22;68;48.792;9.164;2022-10-17T00:34:28;15.30;74.10
152;DHT22;68;48.792;9.164;2022-10-17T00:36:57;15.30;73.20
152;DHT22;68;48.792;9.164;2022-10-17T00:39:24;15.20;77.90
152;DHT22;68;48.792;9.164;2022-10-17T00:41:50;15.00;78.10
152;DHT22;68;48.792;9.164;2022-10-17T00:47:22;15.00;75.00
152;DHT22;68;48.792;9.164;2022-10-17T00:49:49;14.90;74.20
152;DHT22;68;48.792;9.164;2022-10-17T00:52:20;15.00;73.50
152;DHT22;68;48.792;9.164;2022-10-17T00:54:50;14.90;74.10
152;DHT22;68;48.792;9.164;2022-10-17T00:57:20;15.10;74.50
152;DHT22;68;48.792;9.164;2022-10-17T00:59:50;14.90;72.90
152;DHT22;68;48.792;9.164;2022-10-17T01:02:20;14.90;72.50
152;DHT22;68;48.792;9.164;2022-10-17T01:04:49;14.70;72.10
152;DHT22;68;48.792;9.164;2022-10-17T01:07:17;14.60;70.70
152;DHT22;68;48.792;9.164;2022-10-17T01:09:45;14.60;67.70
152;DHT22;68;48.792;9.164;2022-10-17T01:12:19;14.50;65.20
152;DHT22;68;48.792;9.164;2022-10-17T01:14:56;14.40;63.70
152;DHT22;68;48.792;9.164;2022-10-17T01:17:32;14.40;62.60
152;DHT22;68;48.792;9.164;2022-10-17T01:23:26;14.30;56.10
152;DHT22;68;48.792;9.164;2022-10-17T01:26:01;14.30;54.50
152;DHT22;68;48.792;9.164;2022-10-17T01:31:37;14.40;53.90
152;DHT22;68;48.792;9.164;2022-10-17T01:34:12;14.40;55.90
152;DHT22;68;48.792;9.164;2022-10-17T01:36:47;14.40;57.30
152;DHT22;68;48.792;9.164;2022-10-17T01:39:22;14.50;57.60
152;DHT22;68;48.792;9.164;2022-10-17T01:41:56;14.40;60.70
152;DHT22;68;48.792;9.164;2022-10-17T01:44:28;14.40;62.60
152;DHT22;68;48.792;9.164;2022-10-17T01:47:03;14.30;62.00
152;DHT22;68;48.792;9.164;2022-10-17T01:49:31;14.40;61.30
152;DHT22;68;48.792;9.164;2022-10-17T01:52:01;14.40;62.40
152;DHT22;68;48.792;9.164;2022-10-17T01:54:31;14.30;63.90
152;DHT22;68;48.792;9.164;2022-10-17T01:57:04;14.40;66.00
152;DHT22;68;48.792;9.164;2022-10-17T01:59:37;14.40;69.00
152;DHT22;68;48.792;9.164;2022-10-17T02:02:07;14.40;71.00
152;DHT22;68;48.792;9.164;2022-10-17T02:04:35;14.40;72.70
152;DHT22;68;48.792;9.164;2022-10-17T02:07:06;14.40;72.80
152;DHT22;68;48.792;9.164;2022-10-17T02:09:33;14.40;73.10
152;DHT22;68;48.792;9.164;2022-10-17T02:12:14;14.40;74.10
152;DHT22;68;48.792;9.164;2022-10-17T02:14:53;14.40;76.70
152;DHT22;68;48.792;9.164;2022-10-17T02:17:32;14.30;76.60
152;DHT22;68;48.792;9.164;2022-10-17T02:20:08;14.40;77.60
152;DHT22;68;48.792;9.164;2022-10-17T02:22:40;14.50;78.20
152;DHT22;68;48.792;9.164;2022-10-17T02:25:12;14.40;78.90
152;DHT22;68;48.792;9.164;2022-10-17T02:27:44;14.40;79.20
152;DHT22;68;48.792;9.164;2022-10-17T02:30:18;14.70;77.80
152;DHT22;68;48.792;9.164;2022-10-17T02:32:51;14.60;81.60
152;DHT22;68;48.792;9.164;2022-10-17T02:35:20;14.40;82.30
152;DHT22;68;48.792;9.164;2022-10-17T02:37:49;14.40;81.40
152;DHT22;68;48.792;9.164;2022-10-17T02:40:18;14.30;81.70
152;DHT22;68;48.792;9.164;2022-10-17T02:42:47;14.30;80.90
152;DHT22;68;48.792;9.164;2022-10-17T02:45:15;14.30;80.60
152;DHT22;68;48.792;9.164;2022-10-17T02:47:50;14.30;80.20
152;DHT22;68;48.792;9.164;2022-10-17T02:50:26;14.30;81.00
152;DHT22;68;48.792;9.164;2022-10-17T02:52:59;14.30;81.90
152;DHT22;68;48.792;9.164;2022-10-17T02:55:30;14.40;82.00
152;DHT22;68;48.792;9.164;2022-10-17T02:58:01;14.40;82.10
152;DHT22;68;48.792;9.164;2022-10-17T03:00:30;14.40;82.50
152;DHT22;68;48.792;9.164;2022-10-17T03:02:58;14.40;83.70
152;DHT22;68;48.792;9.164;2022-10-17T03:05:26;14.50;84.70
152;DHT22;68;48.792;9.164;2022-10-17T03:07:54;14.50;85.10
152;DHT22;68;48.792;9.164;2022-10-17T03:10:21;14.50;84.40
152;DHT22;68;48.792;9.164;2022-10-17T03:12:48;14.40;85.00
152;DHT22;68;48.792;9.164;2022-10-17T03:15:15;14.50;85.80
152;DHT22;68;48.792;9.164;2022-10-17T03:17:42;14.60;86.50
152;DHT22;68;48.792;9.164;2022-10-17T03:20:10;14.90;86.90
152;DHT22;68;48.792;9.164;2022-10-17T03:22:37;15.30;90.70
152;DHT22;68;48.792;9.164;2022-10-17T03:25:04;15.50;91.90
152;DHT22;68;48.792;9.164;2022-10-17T03:27:31;15.30;92.10
152;DHT22;68;48.792;9.164;2022-10-17T03:29:58;15.50;92.90
152;DHT22;68;48.792;9.164;2022-10-17T03:32:25;15.30;92.70
152;DHT22;68;48.792;9.164;2022-10-17T03:34:51;14.90;90.30
152;DHT22;68;48.792;9.164;2022-10-17T03:37:20;14.60;88.30
152;DHT22;68;48.792;9.164;2022-10-17T03:39:46;14.40;85.30
152;DHT22;68;48.792;9.164;2022-10-17T03:42:13;14.40;81.50
152;DHT22;68;48.792;9.164;2022-10-17T03:44:40;14.20;80.70
152;DHT22;68;48.792;9.164;2022-10-17T03:47:07;14.30;76.90
152;DHT22;68;48.792;9.164;2022-10-17T03:49:34;14.40;75.70
152;DHT22;68;48.792;9.164;2022-10-17T03:52:00;14.60;78.00
152;DHT22;68;48.792;9.164;2022-10-17T03:54:29;14.50;80.20
152;DHT22;68;48.792;9.164;2022-10-17T03:56:56;14.30;81.00
152;DHT22;68;48.792;9.164;2022-10-17T03:59:22;14.10;78.20
152;DHT22;68;48.792;9.164;2022-10-17T04:01:49;13.90;75.30
152;DHT22;68;48.792;9.164;2022-10-17T04:04:16;13.80;74.00
152;DHT22;68;48.792;9.164;2022-10-17T04:06:43;13.80;72.50
152;DHT22;68;48.792;9.164;2022-10-17T04:09:10;13.80;71.70
152;DHT22;68;48.792;9.164;2022-10-17T04:11:38;13.80;71.90
152;DHT22;68;48.792;9.164;2022-10-17T04:14:05;13.80;72.00
152;DHT22;68;48.792;9.164;2022-10-17T04:16:32;13.80;74.40
152;DHT22;68;48.792;9.164;2022-10-17T04:18:59;13.80;74.40
152;DHT22;68;48.792;9.164;2022-10-17T04:21:27;13.80;74.30
152;DHT22;68;48.792;9.164;2022-10-17T04:23:54;13.80;73.60
152;DHT22;68;48.792;9.164;2022-10-17T04:26:21;13.80;73.50
152;DHT22;68;48.792;9.164;2022-10-17T04:28:50;13.80;73.90
152;DHT22;68;48.792;9.164;2022-10-17T04:31:17;13.80;74.00
152;DHT22;68;48.792;9.164;2022-10-17T04:33:46;13.90;74.60
152;DHT22;68;48.792;9.164;2022-10-17T04:36:14;13.90;75.70
152;DHT22;68;48.792;9.164;2022-10-17T04:38:41;14.10;75.80
152;DHT22;68;48.792;9.164;2022-10-17T04:41:11;14.10;78.80
152;DHT22;68;48.792;9.164;2022-10-17T04:43:38;14.10;79.20
152;DHT22;68;48.792;9.164;2022-10-17T04:46:08;14.00;80.40
152;DHT22;68;48.792;9.164;2022-10-17T04:48:35;14.00;80.00
152;DHT22;68;48.792;9.164;2022-10-17T04:51:03;14.00;78.80
152;DHT22;68;48.792;9.164;2022-10-17T04:53:31;13.90;80.00
152;DHT22;68;48.792;9.164;2022-10-17T04:55:59;14.00;80.00
152;DHT22;68;48.792;9.164;2022-10-17T04:58:27;14.10;81.20
152;DHT22;68;48.792;9.164;2022-10-17T05:00:54;14.10;81.30
152;DHT22;68;48.792;9.164;2022-10-17T05:03:22;14.30;81.10
152;DHT22;68;48.792;9.164;2022-10-17T05:05:49;14.30;83.70
152;DHT22;68;48.792;9.164;2022-10-17T05:08:16;14.30;84.50
152;DHT22;68;48.792;9.164;2022-10-17T05:10:43;14.40;84.50
152;DHT22;68;48.792;9.164;2022-10-17T05:13:11;14.20;84.70
152;DHT22;68;48.792;9.164;2022-10-17T05:15:38;14.10;82.20
152;DHT22;68;48.792;9.164;2022-10-17T05:18:06;14.10;80.30
152;DHT22;68;48.792;9.164;2022-10-17T05:20:34;14.10;80.50
152;DHT22;68;48.792;9.164;2022-10-17T05:23:01;14.00;81.00
152;DHT22;68;48.792;9.164;2022-10-17T05:25:27;14.00;78.00
152;DHT22;68;48.792;9.164;2022-10-17T05:27:54;13.90;79.50
152;DHT22;68;48.792;9.164;2022-10-17T05:30:21;13.90;76.00
152;DHT22;68;48.792;9.164;2022-10-17T05:32:51;13.80;78.50
152;DHT22;68;48.792;9.164;2022-10-17T05:35:18;13.80;79.90
152;DHT22;68;48.792;9.164;2022-10-17T05:37:47;13.80;79.70
152;DHT22;68;48.792;9.164;2022-10-17T05:40:14;13.90;76.90
152;DHT22;68;48.792;9.164;2022-10-17T05:42:44;13.80;78.40
152;DHT22;68;48.792;9.164;2022-10-17T05:45:11;13.80;79.80
152;DHT22;68;48.792;9.164;2022-10-17T05:47:38;13.80;79.90
152;DHT22;68;48.792;9.164;2022-10-17T05:50:06;13.80;79.80
152;DHT22;68;48.792;9.164;2022-10-17T05:52:33;13.90;80.50
152;DHT22;68;48.792;9.164;2022-10-17T05:55:01;13.90;80.90
152;DHT22;68;48.792;9.164;2022-10-17T05:57:28;13.90;80.90
152;DHT22;68;48.792;9.164;2022-10-17T05:59:55;14.00;81.20
152;DHT22;68;48.792;9.164;2022-10-17T06:02:22;14.00;82.80
152;DHT22;68;48.792;9.164;2022-10-17T06:04:48;14.00;83.40
152;DHT22;68;48.792;9.164;2022-10-17T06:07:15;14.00;82.80
152;DHT22;68;48.792;9.164;2022-10-17T06:09:42;14.00;83.40
152;DHT22;68;48.792;9.164;2022-10-17T06:12:10;14.00;83.00
152;DHT22;68;48.792;9.164;2022-10-17T06:14:37;14.00;84.10
152;DHT22;68;48.792;9.164;2022-10-17T06:17:04;14.10;85.10
152;DHT22;68;48.792;9.164;2022-10-17T06:19:31;14.20;85.60
152;DHT22;68;48.792;9.164;2022-10-17T06:21:57;14.30;86.40
152;DHT22;68;48.792;9.164;2022-10-17T06:24:24;14.50;88.20
152;DHT22;68;48.792;9.164;2022-10-17T06:26:51;14.50;89.80
152;DHT22;68;48.792;9.164;2022-10-17T06:29:19;14.40;89.60
152;DHT22;68;48.792;9.164;2022-10-17T06:31:46;14.40;89.50
152;DHT22;68;48.792;9.164;2022-10-17T06:34:13;14.30;88.40
152;DHT22;68;48.792;9.164;2022-10-17T06:36:39;14.30;88.10
152;DHT22;68;48.792;9.164;2022-10-17T06:39:06;14.70;88.40
152;DHT22;68;48.792;9.164;2022-10-17T06:41:33;14.80;89.90
152;DHT22;68;48.792;9.164;2022-10-17T06:44:00;15.20;92.00
152;DHT22;68;48.792;9.164;2022-10-17T06:46:33;15.50;94.00
152;DHT22;68;48.792;9.164;2022-10-17T06:49:00;15.60;94.40
152;DHT22;68;48.792;9.164;2022-10-17T06:51:27;15.60;93.90
152;DHT22;68;48.792;9.164;2022-10-17T06:53:54;15.60;94.30
152;DHT22;68;48.792;9.164;2022-10-17T06:56:22;15.20;91.60
152;DHT22;68;48.792;9.164;2022-10-17T06:58:49;15.10;90.80
152;DHT22;68;48.792;9.164;2022-10-17T07:01:17;15.20;89.50
152;DHT22;68;48.792;9.164;2022-10-17T07:03:46;15.40;91.40
152;DHT22;68;48.792;9.164;2022-10-17T07:06:13;15.50;92.50
152;DHT22;68;48.792;9.164;2022-10-17T07:08:41;15.40;91.60
152;DHT22;68;48.792;9.164;2022-10-17T07:11:09;15.20;91.10
152;DHT22;68;48.792;9.164;2022-10-17T07:13:36;15.20;90.20
152;DHT22;68;48.792;9.164;2022-10-17T07:16:04;15.00;90.10
152;DHT22;68;48.792;9.164;2022-10-17T07:18:31;15.20;89.30
152;DHT22;68;48.792;9.164;2022-10-17T07:20:59;15.20;89.30
152;DHT22;68;48.792;9.164;2022-10-17T07:23:26;15.40;89.70
152;DHT22;68;48.792;9.164;2022-10-17T07:25:58;15.50;93.00
152;DHT22;68;48.792;9.164;2022-10-17T07:28:25;15.50;93.10
152;DHT22;68;48.792;9.164;2022-10-17T07:30:52;15.50;93.30
152;DHT22;68;48.792;9.164;2022-10-17T07:33:18;15.60;94.30
152;DHT22;68;48.792;9.164;2022-10-17T07:35:45;15.90;94.70
152;DHT22;68;48.792;9.164;2022-10-17T07:38:13;16.00;94.90
152;DHT22;68;48.792;9.164;2022-10-17T07:40:40;16.10;94.70
152;DHT22;68;48.792;9.164;2022-10-17T07:43:07;16.30;94.90
152;DHT22;68;48.792;9.164;2022-10-17T07:45:33;16.40;95.00
152;DHT22;68;48.792;9.164;2022-10-17T07:48:00;16.50;94.90
152;DHT22;68;48.792;9.164;2022-10-17T07:50:27;16.40;94.50
152;DHT22;68;48.792;9.164;2022-10-17T07:52:54;16.60;94.80
152;DHT22;68;48.792;9.164;2022-10-17T07:55:22;16.70;94.30
152;DHT22;68;48.792;9.164;2022-10-17T07:57:49;16.90;94.90
152;DHT22;68;48.792;9.164;2022-10-17T08:00:15;17.00;94.70
152;DHT22;68;48.792;9.164;2022-10-17T08:02:42;17.10;93.90
152;DHT22;68;48.792;9.164;2022-10-17T08:05:09;17.10;94.20
152;DHT22;68;48.792;9.164;2022-10-17T08:07:36;17.30;94.20
152;DHT22;68;48.792;9.164;2022-10-17T08:10:04;17.50;94.10
152;DHT22;68;48.792;9.164;2022-10-17T08:12:32;17.50;93.50
152;DHT22;68;48.792;9.164;2022-10-17T08:14:59;17.50;93.90
152;DHT22;68;48.792;9.164;2022-10-17T08:17:26;17.50;93.60
152;DHT22;68;48.792;9.164;2022-10-17T08:19:53;17.50;93.30
152;DHT22;68;48.792;9.164;2022-10-17T08:22:20;17.50;93.80
152;DHT22;68;48.792;9.164;2022-10-17T08:24:47;17.60;93.60
152;DHT22;68;48.792;9.164;2022-10-17T08:27:13;17.90;92.50
152;DHT22;68;48.792;9.164;2022-10-17T08:29:47;18.10;91.30
152;DHT22;68;48.792;9.164;2022-10-17T08:32:17;18.10;91.30
152;DHT22;68;48.792;9.164;2022-10-17T08:34:44;18.20;90.60
152;DHT22;68;48.792;9.164;2022-10-17T08:37:10;18.40;89.20
152;DHT22;68;48.792;9.164;2022-10-17T08:39:38;18.60;89.20
152;DHT22;68;48.792;9.164;2022-10-17T08:42:25;18.80;87.60
152;DHT22;68;48.792;9.164;2022-10-17T08:45:01;19.00;86.60
152;DHT22;68;48.792;9.164;2022-10-17T08:47:35;19.10;87.00
152;DHT22;68;48.792;9.164;2022-10-17T08:50:06;19.20;87.20
152;DHT22;68;48.792;9.164;2022-10-17T08:52:35;19.20;86.50
152;DHT22;68;48.792;9.164;2022-10-17T08:55:07;19.40;86.80
152;DHT22;68;48.792;9.164;2022-10-17T08:57:37;19.60;85.40
152;DHT22;68;48.792;9.164;2022-10-17T09:00:14;19.70;83.40
152;DHT22;68;48.792;9.164;2022-10-17T09:02:53;19.70;84.20
152;DHT22;68;48.792;9.164;2022-10-17T09:05:28;20.00;83.60
152;DHT22;68;48.792;9.164;2022-10-17T09:08:03;20.10;84.50
152;DHT22;68;48.792;9.164;2022-10-17T09:10:42;20.10;83.70
152;DHT22;68;48.792;9.164;2022-10-17T09:13:21;20.10;84.60
152;DHT22;68;48.792;9.164;2022-10-17T09:16:07;20.00;84.10
152;DHT22;68;48.792;9.164;2022-10-17T09:18:39;20.00;85.30
152;DHT22;68;48.792;9.164;2022-10-17T09:21:16;20.10;85.20
152;DHT22;68;48.792;9.164;2022-10-17T09:23:47;20.00;85.90
152;DHT22;68;48.792;9.164;2022-10-17T09:26:14;20.00;85.30
152;DHT22;68;48.792;9.164;2022-10-17T09:28:42;20.00;85.80
152;DHT22;68;48.792;9.164;2022-10-17T09:31:17;20.20;85.90
152;DHT22;68;48.792;9.164;2022-10-17T09:33:47;20.50;83.50
152;DHT22;68;48.792;9.164;2022-10-17T09:36:16;20.70;81.90
152;DHT22;68;48.792;9.164;2022-10-17T09:38:46;20.80;81.50
152;DHT22;68;48.792;9.164;2022-10-17T09:41:17;20.90;82.50
152;DHT22;68;48.792;9.164;2022-10-17T09:43:44;20.90;80.40
152;DHT22;68;48.792;9.164;2022-10-17T09:46:17;20.90;83.00
152;DHT22;68;48.792;9.164;2022-10-17T09:48:49;20.80;83.50
152;DHT22;68;48.792;9.164;2022-10-17T09:51:17;20.90;83.00
152;DHT22;68;48.792;9.164;2022-10-17T09:53:48;21.10;83.20
152;DHT22;68;48.792;9.164;2022-10-17T09:56:18;21.20;83.20
152;DHT22;68;48.792;9.164;2022-10-17T09:58:47;21.30;83.10
152;DHT22;68;48.792;9.164;2022-10-17T10:01:17;21.50;80.50
152;DHT22;68;48.792;9.164;2022-10-17T10:03:44;21.60;78.00
152;DHT22;68;48.792;9.164;2022-10-17T10:06:13;21.80;77.70
152;DHT22;68;48.792;9.164;2022-10-17T10:08:48;21.90;77.20
152;DHT22;68;48.792;9.164;2022-10-17T10:11:16;22.00;76.40
152;DHT22;68;48.792;9.164;2022-10-17T10:13:45;22.00;77.70
152;DHT22;68;48.792;9.164;2022-10-17T10:16:17;22.10;76.40
152;DHT22;68;48.792;9.164;2022-10-17T10:18:44;22.00;77.60
152;DHT22;68;48.792;9.164;2022-10-17T10:21:12;22.10;77.60
152;DHT22;68;48.792;9.164;2022-10-17T10:23:41;22.30;77.30
152;DHT22;68;48.792;9.164;2022-10-17T10:26:26;22.40;78.10
152;DHT22;68;48.792;9.164;2022-10-17T10:28:57;22.60;76.10
152;DHT22;68;48.792;9.164;2022-10-17T10:31:33;22.70;74.70
152;DHT22;68;48.792;9.164;2022-10-17T10:34:02;22.80;75.40
152;DHT22;68;48.792;9.164;2022-10-17T10:36:44;22.80;74.30
152;DHT22;68;48.792;9.164;2022-10-17T10:42:03;23.00;74.20
152;DHT22;68;48.792;9.164;2022-10-17T10:44:32;23.10;73.60
152;DHT22;68;48.792;9.164;2022-10-17T10:47:13;23.10;71.80
152;DHT22;68;48.792;9.164;2022-10-17T10:49:41;23.30;72.30
152;DHT22;68;48.792;9.164;2022-10-17T10:52:12;23.50;71.90
152;DHT22;68;48.792;9.164;2022-10-17T10:54:44;23.70;70.80
152;DHT22;68;48.792;9.164;2022-10-17T10:57:18;23.80;72.80
152;DHT22;68;48.792;9.164;2022-10-17T10:59:55;23.80;71.40
152;DHT22;68;48.792;9.164;2022-10-17T11:02:29;23.90;70.10
152;DHT22;68;48.792;9.164;2022-10-17T11:05:00;24.00;69.70
152;DHT22;68;48.792;9.164;2022-10-17T11:07:31;24.10;69.60
152;DHT22;68;48.792;9.164;2022-10-17T11:10:07;24.20;68.70
152;DHT22;68;48.792;9.164;2022-10-17T11:12:40;24.30;73.20
152;DHT22;68;48.792;9.164;2022-10-17T11:15:16;24.30;71.00
152;DHT22;68;48.792;9.164;2022-10-17T11:17:53;24.60;69.20
152;DHT22;68;48.792;9.164;2022-10-17T11:20:27;24.80;68.00
152;DHT22;68;48.792;9.164;2022-10-17T11:23:00;25.20;67.10
152;DHT22;68;48.792;9.164;2022-10-17T11:25:32;25.50;64.90
152;DHT22;68;48.792;9.164;2022-10-17T11:27:59;25.70;64.60
152;DHT22;68;48.792;9.164;2022-10-17T11:30:34;25.90;64.30
152;DHT22;68;48.792;9.164;2022-10-17T11:33:03;25.90;64.90
152;DHT22;68;48.792;9.164;2022-10-17T11:35:34;26.20;63.20
152;DHT22;68;48.792;9.164;2022-10-17T11:38:08;26.20;62.60
152;DHT22;68;48.792;9.164;2022-10-17T11:40:39;26.30;63.00
152;DHT22;68;48.792;9.164;2022-10-17T11:43:13;26.30;60.60
152;DHT22;68;48.792;9.164;2022-10-17T11:45:44;26.20;64.00
152;DHT22;68;48.792;9.164;2022-10-17T11:48:16;26.60;61.00
152;DHT22;68;48.792;9.164;2022-10-17T11:50:48;26.90;59.80
152;DHT22;68;48.792;9.164;2022-10-17T11:53:21;27.30;58.20
152;DHT22;68;48.792;9.164;2022-10-17T11:55:49;27.50;57.40
152;DHT22;68;48.792;9.164;2022-10-17T11:58:27;27.50;57.20
152;DHT22;68;48.792;9.164;2022-10-17T12:01:03;27.50;60.60
152;DHT22;68;48.792;9.164;2022-10-17T12:03:47;27.50;58.00
152;DHT22;68;48.792;9.164;2022-10-17T12:06:22;27.40;58.30
152;DHT22;68;48.792;9.164;2022-10-17T12:08:56;27.30;59.10
152;DHT22;68;48.792;9.164;2022-10-17T12:11:36;27.30;58.20
152;DHT22;68;48.792;9.164;2022-10-17T12:14:41;27.00;59.80
152;DHT22;68;48.792;9.164;2022-10-17T12:17:38;27.10;60.50
152;DHT22;68;48.792;9.164;2022-10-17T12:20:33;26.90;61.00
152;DHT22;68;48.792;9.164;2022-10-17T12:25:49;26.50;61.70
152;DHT22;68;48.792;9.164;2022-10-17T12:28:23;26.20;63.70
152;DHT22;68;48.792;9.164;2022-10-17T12:30:54;26.50;60.80
152;DHT22;68;48.792;9.164;2022-10-17T12:33:27;26.60;59.30
152;DHT22;68;48.792;9.164;2022-10-17T12:42:45;26.00;63.60
152;DHT22;68;48.792;9.164;2022-10-17T12:45:43;26.10;60.00
152;DHT22;68;48.792;9.164;2022-10-17T12:48:10;25.90;61.20
152;DHT22;68;48.792;9.164;2022-10-17T12:51:00;25.90;60.80
152;DHT22;68;48.792;9.164;2022-10-17T12:53:33;26.10;61.50
152;DHT22;68;48.792;9.164;2022-10-17T12:56:02;26.10;60.60
152;DHT22;68;48.792;9.164;2022-10-17T12:58:30;26.20;61.50
152;DHT22;68;48.792;9.164;2022-10-17T13:00:58;26.20;63.40
152;DHT22;68;48.792;9.164;2022-10-17T13:03:29;26.30;60.20
152;DHT22;68;48.792;9.164;2022-10-17T13:06:00;26.50;60.30
152;DHT22;68;48.792;9.164;2022-10-17T13:08:28;26.10;60.90
152;DHT22;68;48.792;9.164;2022-10-17T13:10:56;26.20;61.60
152;DHT22;68;48.792;9.164;2022-10-17T13:13:29;26.10;61.40
152;DHT22;68;48.792;9.164;2022-10-17T13:16:02;26.10;65.70
152;DHT22;68;48.792;9.164;2022-10-17T13:18:29;26.10;68.20
152;DHT22;68;48.792;9.164;2022-10-17T13:21:00;25.80;69.90
152;DHT22;68;48.792;9.164;2022-10-17T13:23:32;25.70;70.70
152;DHT22;68;48.792;9.164;2022-10-17T13:26:12;25.40;71.70
152;DHT22;68;48.792;9.164;2022-10-17T13:28:39;25.20;69.60
152;DHT22;68;48.792;9.164;2022-10-17T13:31:26;25.10;71.10
152;DHT22;68;48.792;9.164;2022-10-17T13:33:55;25.30;70.10
152;DHT22;68;48.792;9.164;2022-10-17T13:36:23;25.20;69.10
152;DHT22;68;48.792;9.164;2022-10-17T13:38:50;24.90;72.70
152;DHT22;68;48.792;9.164;2022-10-17T13:41:21;24.90;70.80
152;DHT22;68;48.792;9.164;2022-10-17T13:43:50;24.80;69.80
152;DHT22;68;48.792;9.164;2022-10-17T13:46:24;24.80;70.90
152;DHT22;68;48.792;9.164;2022-10-17T13:48:52;24.70;70.50
152;DHT22;68;48.792;9.164;2022-10-17T13:51:19;24.80;71.20
152;DHT22;68;48.792;9.164;2022-10-17T13:53:45;24.70;72.30
152;DHT22;68;48.792;9.164;2022-10-17T13:56:18;24.70;72.10
152;DHT22;68;48.792;9.164;2022-10-17T13:58:47;24.60;72.40
152;DHT22;68;48.792;9.164;2022-10-17T14:01:14;24.40;71.70
152;DHT22;68;48.792;9.164;2022-10-17T14:03:43;24.50;71.40
152;DHT22;68;48.792;9.164;2022-10-17T14:06:15;24.40;72.70
152;DHT22;68;48.792;9.164;2022-10-17T14:08:55;24.40;72.90
152;DHT22;68;48.792;9.164;2022-10-17T14:11:31;24.40;70.40
152;DHT22;68;48.792;9.164;2022-10-17T14:14:00;24.20;69.00
152;DHT22;68;48.792;9.164;2022-10-17T14:16:34;24.30;70.00
152;DHT22;68;48.792;9.164;2022-10-17T14:19:03;24.40;71.00
152;DHT22;68;48.792;9.164;2022-10-17T14:21:30;24.30;68.20
152;DHT22;68;48.792;9.164;2022-10-17T14:24:21;24.00;69.00
152;DHT22;68;48.792;9.164;2022-10-17T14:26:52;23.80;69.20
152;DHT22;68;48.792;9.164;2022-10-17T14:29:23;23.70;71.40
152;DHT22;68;48.792;9.164;2022-10-17T14:31:56;23.80;68.90
152;DHT22;68;48.792;9.164;2022-10-17T14:34:27;24.00;70.50
152;DHT22;68;48.792;9.164;2022-10-17T14:36:55;24.20;68.60
152;DHT22;68;48.792;9.164;2022-10-17T14:39:24;24.30;69.50
152;DHT22;68;48.792;9.164;2022-10-17T14:41:52;24.30;69.70
152;DHT22;68;48.792;9.164;2022-10-17T14:44:22;24.30;70.60
152;DHT22;68;48.792;9.164;2022-10-17T14:46:53;23.90;69.00
152;DHT22;68;48.792;9.164;2022-10-17T14:49:30;23.60;70.10
152;DHT22;68;48.792;9.164;2022-10-17T14:52:19;23.60;70.70
152;DHT22;68;48.792;9.164;2022-10-17T14:54:49;23.80;70.70
152;DHT22;68;48.792;9.164;2022-10-17T14:57:18;23.80;72.10
152;DHT22;68;48.792;9.164;2022-10-17T14:59:45;23.70;71.20
152;DHT22;68;48.792;9.164;2022-10-17T15:02:12;23.60;71.00
152;DHT22;68;48.792;9.164;2022-10-17T15:04:40;23.70;70.70
152;DHT22;68;48.792;9.164;2022-10-17T15:07:11;23.90;70.80
152;DHT22;68;48.792;9.164;2022-10-17T15:09:39;23.80;70.40
152;DHT22;68;48.792;9.164;2022-10-17T15:12:09;24.00;70.70
152;DHT22;68;48.792;9.164;2022-10-17T15:14:37;24.00;69.20
152;DHT22;68;48.792;9.164;2022-10-17T15:17:07;23.70;69.30
152;DHT22;68;48.792;9.164;2022-10-17T15:19:34;23.60;70.50
152;DHT22;68;48.792;9.164;2022-10-17T15:22:02;23.60;72.20
152;DHT22;68;48.792;9.164;2022-10-17T15:24:29;23.70;71.80
152;DHT22;68;48.792;9.164;2022-10-17T15:26:56;23.50;72.90
152;DHT22;68;48.792;9.164;2022-10-17T15:29:23;23.30;73.50
152;DHT22;68;48.792;9.164;2022-10-17T15:31:50;23.10;73.10
152;DHT22;68;48.792;9.164;2022-10-17T15:34:16;23.10;73.80
152;DHT22;68;48.792;9.164;2022-10-17T15:36:48;22.90;74.70
152;DHT22;68;48.792;9.164;2022-10-17T15:39:16;22.80;75.20
152;DHT22;68;48.792;9.164;2022-10-17T15:41:43;22.60;75.50
152;DHT22;68;48.792;9.164;2022-10-17T15:44:13;22.50;75.90
152;DHT22;68;48.792;9.164;2022-10-17T15:46:40;22.40;76.40
152;DHT22;68;48.792;9.164;2022-10-17T15:49:10;22.30;76.70
152;DHT22;68;48.792;9.164;2022-10-17T15:51:37;22.20;77.00
152;DHT22;68;48.792;9.164;2022-10-17T15:54:04;22.10;77.30
152;DHT22;68;48.792;9.164;2022-10-17T15:56:34;22.00;77.70
152;DHT22;68;48.792;9.164;2022-10-17T15:59:02;22.00;78.10
152;DHT22;68;48.792;9.164;2022-10-17T16:01:31;21.90;78.20
152;DHT22;68;48.792;9.164;2022-10-17T16:03:58;21.80;79.50
152;DHT22;68;48.792;9.164;2022-10-17T16:06:25;21.60;80.40
152;DHT22;68;48.792;9.164;2022-10-17T16:08:52;21.60;79.70
152;DHT22;68;48.792;9.164;2022-10-17T16:11:26;21.60;79.80
152;DHT22;68;48.792;9.164;2022-10-17T16:13:58;21.50;79.60
152;DHT22;68;48.792;9.164;2022-10-17T16:16:26;21.50;79.00
152;DHT22;68;48.792;9.164;2022-10-17T16:18:53;21.50;78.90
152;DHT22;68;48.792;9.164;2022-10-17T16:21:23;21.40;79.70
152;DHT22;68;48.792;9.164;2022-10-17T16:23:51;21.30;80.30
152;DHT22;68;48.792;9.164;2022-10-17T16:26:18;21.20;81.00
152;DHT22;68;48.792;9.164;2022-10-17T16:28:45;21.10;81.70
152;DHT22;68;48.792;9.164;2022-10-17T16:31:19;20.90;82.50
152;DHT22;68;48.792;9.164;2022-10-17T16:33:49;20.80;83.20
152;DHT22;68;48.792;9.164;2022-10-17T16:36:16;20.60;83.80
152;DHT22;68;48.792;9.164;2022-10-17T16:38:43;20.50;83.70
152;DHT22;68;48.792;9.164;2022-10-17T16:41:18;20.50;84.70
152;DHT22;68;48.792;9.164;2022-10-17T16:43:46;20.40;85.20
152;DHT22;68;48.792;9.164;2022-10-17T16:46:13;20.30;85.90
152;DHT22;68;48.792;9.164;2022-10-17T16:48:43;20.20;86.10
152;DHT22;68;48.792;9.164;2022-10-17T16:51:11;20.10;86.30
152;DHT22;68;48.792;9.164;2022-10-17T16:53:38;20.10;86.60
152;DHT22;68;48.792;9.164;2022-10-17T16:56:10;20.00;87.10
152;DHT22;68;48.792;9.164;2022-10-17T16:58:37;19.90;87.50
152;DHT22;68;48.792;9.164;2022-10-17T17:01:06;19.80;87.90
152;DHT22;68;48.792;9.164;2022-10-17T17:03:34;19.80;88.20
152;DHT22;68;48.792;9.164;2022-10-17T17:06:03;19.70;88.70
152;DHT22;68;48.792;9.164;2022-10-17T17:08:30;19.50;89.30
152;DHT22;68;48.792;9.164;2022-10-17T17:10:56;19.50;89.20
152;DHT22;68;48.792;9.164;2022-10-17T17:13:23;19.50;89.10
152;DHT22;68;48.792;9.164;2022-10-17T17:15:50;19.50;89.20
152;DHT22;68;48.792;9.164;2022-10-17T17:18:18;19.40;89.40
152;DHT22;68;48.792;9.164;2022-10-17T17:20:45;19.40;89.40
152;DHT22;68;48.792;9.164;2022-10-17T17:23:13;19.40;89.40
152;DHT22;68;48.792;9.164;2022-10-17T17:25:40;19.40;89.30
152;DHT22;68;48.792;9.164;2022-10-17T17:28:07;19.40;89.40
152;DHT22;68;48.792;9.164;2022-10-17T17:30:34;19.30;89.60